Lady Fell — TSNU — position and weather

sailwx.info

Track history (hours):
 
Tides and Currents Weather Stations Pressure Air Temp Water Temp Dewpoint Dewpoint Depression Visibility Wind Speed Wind Dir Waves Ship Positions

Lady Fell

Last reported at 2015-Mar-03 04:20 UTC. Time now 2015-Mar-27 05:16 UTC.
Position N 01°10' E 103°43'.
Warning: this ship's position is 24 days out of date.

Length 166 m; draft 6.8 m.

Type: Tanker. MMSI: 672564000.

Date/timePositionNaut miles runAvg speedWind from/ knotsBaromVisibWave heightAir tempDewpointWater temp
2015-Mar-03 04:20N 01°10' E 103°43'0 0.1
2015-Mar-03 03:08N 01°10' E 103°43'0 0.0
2015-Mar-03 02:17N 01°10' E 103°43'0 0.0
2015-Mar-02 17:11N 01°10' E 103°43'0 0.0
2015-Mar-02 13:26N 01°10' E 103°43'0 0.0
2015-Mar-02 02:13N 01°10' E 103°43'0 0.0
2015-Mar-02 00:25N 01°10' E 103°43'0 0.0
2015-Mar-01 21:16N 01°10' E 103°43'0 0.0
2015-Mar-01 12:28N 01°10' E 103°43'0 0.1
2015-Mar-01 11:16N 01°10' E 103°43'0 0.0
2015-Mar-01 04:13N 01°10' E 103°43'0 0.0
2015-Feb-28 22:34N 01°10' E 103°43'0 0.0
2015-Feb-28 21:09N 01°10' E 103°43'0 0.0
2015-Feb-28 18:27N 01°10' E 103°43'0 0.1
2015-Feb-28 17:27N 01°10' E 103°43'0 0.1
2015-Feb-28 16:24N 01°10' E 103°43'0 0.0
2015-Feb-28 15:21N 01°10' E 103°43'0 0.0
2015-Feb-28 13:06N 01°10' E 103°43'0 0.0
2015-Feb-28 12:18N 01°10' E 103°43'0 0.0
2015-Feb-28 07:06N 01°10' E 103°43'0 0.1
2015-Feb-28 03:21N 01°10' E 103°43'0 0.0
2015-Feb-28 02:33N 01°10' E 103°43'0 0.0
2015-Feb-28 01:21N 01°10' E 103°43'0 0.1
2015-Feb-28 00:13N 01°10' E 103°43'0 0.0
2015-Feb-27 21:04N 01°10' E 103°43'0 0.0
2015-Feb-27 18:16N 01°10' E 103°43'0 0.0
2015-Feb-27 17:25N 01°10' E 103°43'0 0.1
2015-Feb-27 16:16N 01°10' E 103°43'0 0.0
2015-Feb-27 14:13N 01°10' E 103°43'0 0.0
2015-Feb-27 13:28N 01°10' E 103°43'0 0.0
2015-Feb-27 12:19N 01°10' E 103°43'0 0.0
2015-Feb-26 04:24N 01°10' E 103°43'0 0.0
2015-Feb-26 03:06N 01°10' E 103°43'0 0.0
2015-Feb-26 02:27N 01°10' E 103°43'0 0.1
2015-Feb-26 00:27N 01°10' E 103°43'0 0.0
2015-Feb-25 23:12N 01°10' E 103°43'0 0.0
2015-Feb-25 21:33N 01°10' E 103°43'0 0.0
2015-Feb-25 04:23N 01°10' E 103°43'0 0.0
2015-Feb-25 03:32N 01°10' E 103°43'0 0.0
2015-Feb-25 01:32N 01°10' E 103°43'0 0.1
2015-Feb-24 23:08N 01°10' E 103°43'0 0.0
2015-Feb-24 21:32N 01°10' E 103°43'0 0.0
2015-Feb-24 20:23N 01°10' E 103°43'0 0.0
2015-Feb-24 19:23N 01°10' E 103°43'0 0.0
2015-Feb-24 18:23N 01°10' E 103°43'0 0.1
2015-Feb-24 16:20N 01°10' E 103°43'0 0.0
2015-Feb-24 08:17N 01°10' E 103°43'0 0.0
2015-Feb-24 06:08N 01°10' E 103°43'0 0.0
2015-Feb-24 04:14N 01°10' E 103°43'0 0.0
2015-Feb-24 03:32N 01°10' E 103°43'0 0.0
2015-Feb-24 02:08N 01°10' E 103°43'0 0.0
2015-Feb-24 01:26N 01°10' E 103°43'0 0.0
2015-Feb-23 22:14N 01°10' E 103°43'0 0.1
2015-Feb-23 21:20N 01°10' E 103°43'0 0.0
2015-Feb-23 20:32N 01°10' E 103°43'0 0.0
2015-Feb-23 18:25N 01°10' E 103°43'0 0.1
2015-Feb-23 17:28N 01°10' E 103°43'0 0.0
2015-Feb-23 16:04N 01°10' E 103°43'0 0.0
2015-Feb-23 14:10N 01°10' E 103°43'0 0.0
2015-Feb-23 13:31N 01°10' E 103°43'0 0.0
2015-Feb-23 12:31N 01°10' E 103°43'0 0.0
2015-Feb-23 07:22N 01°10' E 103°43'0 0.1
2015-Feb-23 06:22N 01°10' E 103°43'0 0.0
2015-Feb-23 05:25N 01°10' E 103°43'2 0.9
2015-Feb-23 03:05N 01°11' E 103°41'85 6.3
2015-Feb-22 13:33N 01°48' E 102°24'8 8.0
2015-Feb-22 12:31N 01°52' E 102°17'8 8.0
2015-Feb-22 11:31N 01°56' E 102°10'8 8.3
2015-Feb-22 10:33N 02°02' E 102°05'8 8.1
2015-Feb-22 09:33N 02°07' E 101°59'8 7.8
2015-Feb-22 08:33N 02°12' E 101°53'  
Track history (hours):
 
Tides and Currents Weather Stations Pressure Air Temp Water Temp Dewpoint Dewpoint Depression Visibility Wind Speed Wind Dir Waves Ship Positions

Lady Fell

Last reported at 2015-Mar-03 04:20 UTC. Time now 2015-Mar-27 05:16 UTC.
Position N 01°10' E 103°43'.
Warning: this ship's position is 24 days out of date.

Length 166 m; draft 6.8 m.

Type: Tanker. MMSI: 672564000.

Date/timePositionNaut miles runAvg speedWind from/ knotsBaromVisibWave heightAir tempDewpointWater temp
2015-Mar-03 04:20N 01°10' E 103°43'0 0.1
2015-Mar-03 03:08N 01°10' E 103°43'0 0.0
2015-Mar-03 02:17N 01°10' E 103°43'0 0.0
2015-Mar-02 17:11N 01°10' E 103°43'0 0.0
2015-Mar-02 13:26N 01°10' E 103°43'0 0.0
2015-Mar-02 02:13N 01°10' E 103°43'0 0.0
2015-Mar-02 00:25N 01°10' E 103°43'0 0.0
2015-Mar-01 21:16N 01°10' E 103°43'0 0.0
2015-Mar-01 12:28N 01°10' E 103°43'0 0.1
2015-Mar-01 11:16N 01°10' E 103°43'0 0.0
2015-Mar-01 04:13N 01°10' E 103°43'0 0.0
2015-Feb-28 22:34N 01°10' E 103°43'0 0.0
2015-Feb-28 21:09N 01°10' E 103°43'0 0.0
2015-Feb-28 18:27N 01°10' E 103°43'0 0.1
2015-Feb-28 17:27N 01°10' E 103°43'0 0.1
2015-Feb-28 16:24N 01°10' E 103°43'0 0.0
2015-Feb-28 15:21N 01°10' E 103°43'0 0.0
2015-Feb-28 13:06N 01°10' E 103°43'0 0.0
2015-Feb-28 12:18N 01°10' E 103°43'0 0.0
2015-Feb-28 07:06N 01°10' E 103°43'0 0.1
2015-Feb-28 03:21N 01°10' E 103°43'0 0.0
2015-Feb-28 02:33N 01°10' E 103°43'0 0.0
2015-Feb-28 01:21N 01°10' E 103°43'0 0.1
2015-Feb-28 00:13N 01°10' E 103°43'0 0.0
2015-Feb-27 21:04N 01°10' E 103°43'0 0.0
2015-Feb-27 18:16N 01°10' E 103°43'0 0.0
2015-Feb-27 17:25N 01°10' E 103°43'0 0.1
2015-Feb-27 16:16N 01°10' E 103°43'0 0.0
2015-Feb-27 14:13N 01°10' E 103°43'0 0.0
2015-Feb-27 13:28N 01°10' E 103°43'0 0.0
2015-Feb-27 12:19N 01°10' E 103°43'0 0.0
2015-Feb-26 04:24N 01°10' E 103°43'0 0.0
2015-Feb-26 03:06N 01°10' E 103°43'0 0.0
2015-Feb-26 02:27N 01°10' E 103°43'0 0.1
2015-Feb-26 00:27N 01°10' E 103°43'0 0.0
2015-Feb-25 23:12N 01°10' E 103°43'0 0.0
2015-Feb-25 21:33N 01°10' E 103°43'0 0.0
2015-Feb-25 04:23N 01°10' E 103°43'0 0.0
2015-Feb-25 03:32N 01°10' E 103°43'0 0.0
2015-Feb-25 01:32N 01°10' E 103°43'0 0.1
2015-Feb-24 23:08N 01°10' E 103°43'0 0.0
2015-Feb-24 21:32N 01°10' E 103°43'0 0.0
2015-Feb-24 20:23N 01°10' E 103°43'0 0.0
2015-Feb-24 19:23N 01°10' E 103°43'0 0.0
2015-Feb-24 18:23N 01°10' E 103°43'0 0.1
2015-Feb-24 16:20N 01°10' E 103°43'0 0.0
2015-Feb-24 08:17N 01°10' E 103°43'0 0.0
2015-Feb-24 06:08N 01°10' E 103°43'0 0.0
2015-Feb-24 04:14N 01°10' E 103°43'0 0.0
2015-Feb-24 03:32N 01°10' E 103°43'0 0.0
2015-Feb-24 02:08N 01°10' E 103°43'0 0.0
2015-Feb-24 01:26N 01°10' E 103°43'0 0.0
2015-Feb-23 22:14N 01°10' E 103°43'0 0.1
2015-Feb-23 21:20N 01°10' E 103°43'0 0.0
2015-Feb-23 20:32N 01°10' E 103°43'0 0.0
2015-Feb-23 18:25N 01°10' E 103°43'0 0.1
2015-Feb-23 17:28N 01°10' E 103°43'0 0.0
2015-Feb-23 16:04N 01°10' E 103°43'0 0.0
2015-Feb-23 14:10N 01°10' E 103°43'0 0.0
2015-Feb-23 13:31N 01°10' E 103°43'0 0.0
2015-Feb-23 12:31N 01°10' E 103°43'0 0.0
2015-Feb-23 07:22N 01°10' E 103°43'0 0.1
2015-Feb-23 06:22N 01°10' E 103°43'0 0.0
2015-Feb-23 05:25N 01°10' E 103°43'2 0.9
2015-Feb-23 03:05N 01°11' E 103°41'85 6.3
2015-Feb-22 13:33N 01°48' E 102°24'8 8.0
2015-Feb-22 12:31N 01°52' E 102°17'8 8.0
2015-Feb-22 11:31N 01°56' E 102°10'8 8.3
2015-Feb-22 10:33N 02°02' E 102°05'8 8.1
2015-Feb-22 09:33N 02°07' E 101°59'8 7.8
2015-Feb-22 08:33N 02°12' E 101°53'  

Dump ship's entire track history